Latest Weather Observations for Cabramurra

IDN60801

Issued at 9:05 pm EDT Thursday 29 January 2015 (issued every 30 minutes, with the page automatically refreshed every 10 minutes)

About weather observations | Map of weather stations | Latest weather observations for NSW | Other Formats
Station Details ID: 072161 Name: CABRAMURRA SMHEA AWS Lat: -35.94 Lon: 148.38 Height: 1482.4 m
Data from the previous 72 hours. | See also: Recent months at Cabramurra
Date/Time
EDT
Temp
°C
App
Temp
°C
Dew
Point
Rel
Hum
%
Delta-T
°C
Wind Press
QNH
hPa
Press
MSL
hPa
Rain
since 9 am
mm
Dir
 
Spd
km/h
Gust
km/h
Spd
kts
Gust
kts
29/09:00pm 5.8 -0.5 3.5 85 1.1 SE 26 41 14 22 - - 3.6
29/08:30pm 6.3 -1.3 2.6 77 1.7 SE 32 43 17 23 - - 3.6
29/08:08pm 6.9 0.1 3.2 77 1.7 SE 28 46 15 25 - - 3.6
29/08:00pm 6.9 0.9 3.2 77 1.7 SE 24 39 13 21 - - 3.6
29/07:30pm 8.2 2.5 3.1 70 2.4 SE 22 43 12 23 - - 3.6
29/07:00pm 8.5 2.7 2.5 66 2.8 SE 22 43 12 23 - - 3.6
29/06:30pm 9.2 4.2 3.6 68 2.7 SSE 19 30 10 16 - - 3.6
29/06:00pm 9.6 6.6 5.8 77 1.9 SSW 11 19 6 10 - - 3.6
29/05:30pm 10.3 8.8 9.1 92 0.6 ENE 7 9 4 5 - - 3.6
29/05:00pm 9.8 8.8 7.4 85 1.2 NNW 2 7 1 4 - - 3.0
29/04:30pm 9.6 7.4 5.2 74 2.2 WSW 6 9 3 5 - - 3.0
29/04:00pm 9.8 7.1 5.6 75 2.1 WNW 9 11 5 6 - - 0.4
29/03:30pm 9.4 8.5 5.9 79 1.8 CALM 0 4 0 2 - - 0.4
29/03:00pm 10.1 7.6 6.6 79 1.8 WNW 9 13 5 7 - - 0.0
29/02:30pm 9.7 6.8 6.4 80 1.7 NW 11 13 6 7 - - 0.0
29/02:00pm 9.7 7.5 6.1 78 1.8 SW 7 11 4 6 - - 0.0
29/01:30pm 10.8 6.7 2.1 55 4.1 ESE 13 19 7 10 - - 0.0
29/01:00pm 11.5 7.6 3.5 58 3.9 ESE 13 22 7 12 - - 0.0
29/12:30pm 11.0 6.4 3.5 60 3.6 SSE 17 32 9 17 - - 0.0
29/12:00pm 9.9 5.2 3.0 62 3.3 SSE 17 26 9 14 - - 0.0
29/11:30am 9.1 4.4 3.1 66 2.8 SE 17 26 9 14 - - 0.0
29/11:00am 9.7 4.1 3.4 65 3.0 SSE 22 39 12 21 - - 0.0
29/10:30am 9.5 4.2 3.0 64 3.1 SSE 20 35 11 19 - - 0.0
29/10:00am 8.6 2.4 2.4 65 2.9 SSE 24 35 13 19 - - 0.0
29/09:30am 7.6 1.8 2.5 70 2.3 SE 22 33 12 18 - - 0.0
29/09:00am 7.1 2.0 2.8 74 2.0 SSE 19 30 10 16 - - 0.0
29/08:30am 4.9 -1.3 2.3 83 1.2 SE 24 37 13 20 - - 0.0
29/08:00am 4.4 -2.6 2.1 85 1.0 SE 28 37 15 20 - - 0.0
29/07:30am 4.0 -4.8 1.5 84 1.1 ESE 37 50 20 27 - - 0.0
29/07:01am 4.0 -4.4 1.5 84 1.1 ESE 35 54 19 29 - - 0.0
29/07:00am 4.0 -4.8 1.5 84 1.1 ESE 37 54 20 29 - - 0.0
29/06:30am 4.0 -5.1 2.0 87 0.9 ESE 39 52 21 28 - - 0.0
29/06:00am 3.9 -6.0 1.8 86 0.9 ESE 43 63 23 34 - - 0.0
29/05:30am 3.9 -5.7 1.3 83 1.1 ESE 41 61 22 33 - - 0.0
29/05:00am 3.6 -6.4 1.2 84 1.0 ESE 43 61 23 33 - - 0.0
29/04:48am 3.7 -5.9 1.1 83 1.1 ESE 41 63 22 34 - - 0.0
29/04:30am 3.7 -4.8 0.9 82 1.2 ESE 35 48 19 26 - - 0.0
29/04:00am 4.0 -3.4 2.0 87 0.9 ESE 30 41 16 22 - - 0.0
29/03:30am 4.3 -3.6 2.3 87 0.9 SE 33 46 18 25 - - 0.0
29/03:04am 4.7 -2.6 2.2 84 1.1 ESE 30 50 16 27 - - 0.0
29/03:00am 4.5 -2.8 2.4 86 0.9 ESE 30 43 16 23 - - 0.0
29/02:30am 4.6 -2.5 3.3 91 0.6 ESE 30 41 16 22 - - 0.0
29/02:00am 4.9 -2.7 3.1 88 0.8 ESE 32 44 17 24 - - 0.0
29/01:30am 5.0 -1.7 3.5 90 0.7 ESE 28 46 15 25 - - 0.0
29/01:08am 5.2 -2.2 4.2 93 0.5 ESE 32 50 17 27 - - 0.0
29/01:00am 5.4 -2.0 4.1 91 0.6 ESE 32 48 17 26 - - 0.0
29/12:32am 5.6 -1.9 4.2 91 0.7 ESE 33 52 18 28 - - 0.0
29/12:30am 5.5 -2.0 4.2 91 0.6 ESE 33 48 18 26 - - 0.0
29/12:00am 5.8 -2.1 4.4 91 0.7 ESE 35 52 19 28 - - 0.0
 
Date/Time
EDT
Temp
°C
App
Temp
°C
Dew
Point
Rel
Hum
%
Delta-T
°C
Wind Press
QNH
hPa
Press
MSL
hPa
Rain
since 9 am
mm
Dir
 
Spd
km/h
Gust
km/h
Spd
kts
Gust
kts
28/11:30pm 6.0 -1.4 4.8 92 0.6 ESE 33 52 18 28 - - 0.0
28/11:27pm 6.0 -1.4 5.1 94 0.4 ESE 33 52 18 28 - - 0.0
28/11:00pm 6.2 -2.3 5.2 93 0.5 ESE 39 52 21 28 - - 0.0
28/10:34pm 6.5 -1.1 5.8 95 0.3 ESE 35 54 19 29 - - 0.0
28/10:30pm 6.5 -1.5 5.8 95 0.3 ESE 37 54 20 29 - - 0.0
28/10:00pm 6.6 -1.7 6.0 96 0.3 ESE 39 59 21 32 - - 0.0
28/09:51pm 6.7 -2.0 6.1 96 0.3 ESE 41 59 22 32 - - 0.0
28/09:30pm 6.8 -0.7 6.5 98 0.1 ESE 35 48 19 26 - - 0.0
28/09:04pm 7.3 -1.0 6.1 92 0.6 ESE 39 59 21 32 - - 0.0
28/09:00pm 7.5 -0.4 6.1 91 0.7 ESE 37 54 20 29 - - 0.0
28/08:30pm 7.5 -0.2 5.3 86 1.1 ESE 35 48 19 26 - - 0.0
28/08:00pm 8.0 -0.6 4.8 80 1.5 ESE 39 54 21 29 - - 0.0
28/07:30pm 9.1 2.0 6.2 82 1.5 ESE 33 48 18 26 - - 0.0
28/07:02pm 9.7 2.4 5.5 75 2.1 ESE 33 52 18 28 - - 0.0
28/07:00pm 9.6 1.9 5.4 75 2.1 ESE 35 48 19 26 - - 0.0
28/06:30pm 10.0 3.4 6.2 77 1.9 ESE 30 43 16 23 - - 0.0
28/06:27pm 9.9 2.9 6.2 78 1.9 ESE 32 50 17 27 - - 0.0
28/06:00pm 10.6 3.5 6.6 76 2.0 ESE 33 48 18 26 - - 0.0
28/05:30pm 10.0 2.4 6.0 76 2.0 ESE 35 48 19 26 - - 0.0
28/05:00pm 10.1 2.6 6.4 78 1.9 ESE 35 52 19 28 - - 0.0
28/04:30pm 10.4 3.4 6.9 79 1.8 ESE 33 46 18 25 - - 0.0
28/04:10pm 10.3 3.2 6.3 76 2.0 ESE 33 52 18 28 - - 0.0
28/04:00pm 10.4 2.5 6.0 74 2.2 ESE 37 52 20 28 - - 0.0
28/03:55pm 11.2 4.3 6.3 72 2.5 ESE 32 52 17 28 - - 0.0
28/03:30pm 13.2 8.9 5.1 58 4.1 SE 17 26 9 14 - - 0.0
28/03:00pm 13.8 9.0 4.4 53 4.7 ESE 19 30 10 16 - - 0.0
28/02:30pm 14.6 10.0 5.4 54 4.7 SE 19 35 10 19 - - 0.0
28/02:00pm 12.3 7.4 4.0 57 4.1 ESE 19 35 10 19 - - 0.0
28/01:30pm 12.9 7.2 6.5 65 3.3 SE 26 37 14 20 - - 0.0
28/01:00pm 11.7 5.5 6.0 68 2.9 ESE 28 39 15 21 - - 0.0
28/12:30pm 11.5 4.9 6.0 69 2.8 ESE 30 39 16 21 - - 0.0
28/12:00pm 11.6 5.3 7.5 76 2.2 SE 30 41 16 22 - - 0.0
28/11:30am 11.1 5.1 7.0 76 2.1 ESE 28 43 15 23 - - 0.0
28/11:00am 10.7 5.1 7.2 79 1.8 ESE 26 37 14 20 - - 0.0
28/10:30am 9.8 3.0 6.9 82 1.5 ESE 32 44 17 24 - - 0.0
28/10:03am 9.7 3.7 7.1 84 1.3 ESE 28 46 15 25 - - 0.0
28/10:00am 9.7 3.3 7.1 84 1.3 ESE 30 46 16 25 - - 0.0
28/09:30am 8.8 1.9 7.1 89 0.9 ESE 33 52 18 28 - - 0.0
28/09:27am 9.2 2.5 7.2 87 1.0 ESE 32 52 17 28 - - 0.0
28/09:00am 8.5 0.2 7.9 96 0.3 ESE 41 54 22 29 - - 0.0
28/08:52am 7.8 0.6 7.7 99 0.1 ESE 35 54 19 29 - - 0.0
28/08:30am 8.2 0.9 7.4 95 0.4 ESE 35 48 19 26 - - 0.0
28/08:00am 8.3 1.2 8.2 99 0.1 ESE 35 46 19 25 - - 0.0
28/07:30am 7.7 0.5 7.6 99 0.1 ESE 35 46 19 25 - - 0.0
28/07:00am 7.6 0.4 7.5 99 0.1 ESE 35 46 19 25 - - 0.0
28/06:30am 7.6 0.9 7.5 99 0.1 ESE 32 44 17 24 - - 0.0
28/06:15am 7.6 0.9 7.5 99 0.1 ESE 32 54 17 29 - - 0.0
28/06:00am 7.7 0.9 7.6 99 0.1 ESE 33 48 18 26 - - 0.0
28/05:30am 7.6 0.9 7.5 99 0.1 ESE 32 50 17 27 - - 0.0
28/05:26am 7.7 1.1 7.6 99 0.1 ESE 32 50 17 27 - - 0.0
28/05:00am 7.5 0.2 7.4 99 0.1 ESE 35 48 19 26 - - 0.0
28/04:30am 7.6 0.9 7.5 99 0.1 ESE 32 44 17 24 - - 0.0
28/04:00am 7.7 0.5 7.6 99 0.1 ESE 35 48 19 26 - - 0.0
28/03:30am 7.8 1.0 7.7 99 0.1 ESE 33 43 18 23 - - 0.0
28/03:00am 7.9 0.4 7.8 99 0.1 ESE 37 48 20 26 - - 0.0
28/02:30am 7.9 0.4 7.8 99 0.1 ESE 37 48 20 26 - - 0.0
28/02:00am 7.8 -0.1 7.7 99 0.1 ESE 39 52 21 28 - - 0.0
28/01:30am 7.9 0.0 7.8 99 0.1 ESE 39 50 21 27 - - 0.0
28/01:12am 8.0 0.9 7.9 99 0.1 ESE 35 54 19 29 - - 0.0
28/01:00am 8.0 0.9 7.9 99 0.1 E 35 52 19 28 - - 0.0
28/12:50am 8.0 1.2 7.9 99 0.1 ESE 33 52 18 28 - - 0.0
28/12:30am 8.2 0.7 8.1 99 0.1 ESE 37 50 20 27 - - 0.0
28/12:00am 8.3 1.6 8.2 99 0.1 ESE 33 50 18 27 - - 0.0
 
Date/Time
EDT
Temp
°C
App
Temp
°C
Dew
Point
Rel
Hum
%
Delta-T
°C
Wind Press
QNH
hPa
Press
MSL
hPa
Rain
since 9 am
mm
Dir
 
Spd
km/h
Gust
km/h
Spd
kts
Gust
kts
27/11:36pm 8.7 2.1 8.6 99 0.1 ESE 33 52 18 28 - - 0.0
27/11:30pm 8.7 1.0 8.6 99 0.1 E 39 52 21 28 - - 0.0
27/11:00pm 8.8 0.7 8.7 99 0.1 E 41 52 22 28 - - 0.0
27/10:30pm 9.0 1.4 8.9 99 0.1 E 39 54 21 29 - - 0.0
27/10:00pm 9.1 1.1 9.0 99 0.1 E 41 54 22 29 - - 0.0
27/09:30pm 9.2 1.6 9.1 99 0.1 E 39 52 21 28 - - 0.0
27/09:00pm 9.3 1.7 9.2 99 0.1 E 39 54 21 29 - - 0.0
27/08:30pm 9.6 2.1 9.5 99 0.1 E 39 50 21 27 - - 0.0
27/08:00pm 10.3 4.7 10.0 98 0.2 E 30 41 16 22 - - 0.0
27/07:30pm 10.8 5.1 9.9 94 0.5 E 30 41 16 22 - - 0.0
27/07:00pm 11.1 5.8 10.0 93 0.6 ESE 28 39 15 21 - - 0.0
27/06:30pm 11.2 5.0 9.9 92 0.7 E 33 46 18 25 - - 0.0
27/06:00pm 12.0 5.9 10.6 91 0.8 E 33 43 18 23 - - 0.0
27/05:30pm 11.5 5.4 9.8 89 0.9 E 32 43 17 23 - - 0.0
27/05:00pm 12.8 7.2 10.0 83 1.6 E 30 41 16 22 - - 0.0
27/04:30pm 12.0 5.9 10.4 90 0.9 E 33 43 18 23 - - 0.0
27/04:00pm 12.1 7.6 10.0 87 1.2 ESE 24 39 13 21 - - 0.0
27/03:30pm 13.4 9.1 9.3 76 2.3 ESE 22 37 12 20 - - 0.0
27/03:00pm 13.2 9.4 9.8 80 1.9 E 20 28 11 15 - - 0.0
27/02:30pm 12.9 8.4 9.9 82 1.7 E 24 32 13 17 - - 0.0
27/02:00pm 13.8 9.9 9.6 76 2.3 E 20 30 11 16 - - 0.0
27/01:30pm 13.4 9.2 9.8 79 2.0 E 22 30 12 16 - - 0.0
27/01:00pm 13.5 9.7 9.9 79 2.0 E 20 28 11 15 - - 0.0
27/12:30pm 13.7 10.0 10.1 79 2.0 E 20 30 11 16 - - 0.0
27/12:00pm 13.0 8.7 9.4 79 2.0 ENE 22 28 12 15 - - 0.0
27/11:30am 13.1 9.6 10.1 82 1.7 NE 19 26 10 14 - - 0.0
27/11:00am 12.2 8.4 9.8 85 1.3 ENE 20 26 11 14 - - 0.0
27/10:30am 12.4 8.7 10.3 87 1.2 ENE 20 32 11 17 - - 0.0
27/10:00am 10.7 6.8 9.5 92 0.7 ENE 20 30 11 16 - - 0.0
27/09:30am 10.5 5.8 9.4 93 0.6 ENE 24 32 13 17 - - 0.0
27/09:00am 9.7 5.0 9.4 98 0.2 ENE 24 32 13 17 - - 0.0
27/08:30am 9.3 4.6 9.2 99 0.1 E 24 32 13 17 - - 0.0
27/08:00am 9.1 3.6 9.0 99 0.1 ENE 28 37 15 20 - - 0.0
27/07:30am 8.7 3.8 8.6 99 0.1 ENE 24 33 13 18 - - 0.0
27/07:00am 8.3 2.9 8.2 99 0.1 ENE 26 33 14 18 - - 0.0
27/06:30am 8.1 2.3 8.0 99 0.1 E 28 35 15 19 - - 0.0
27/06:00am 7.9 2.1 7.8 99 0.1 ENE 28 35 15 19 - - 0.0
27/05:30am 8.1 2.3 8.0 99 0.1 ENE 28 39 15 21 - - 0.0
27/05:00am 8.1 2.3 8.0 99 0.1 ENE 28 37 15 20 - - 0.0
27/04:30am 8.0 1.8 7.9 99 0.1 E 30 39 16 21 - - 0.0
27/04:00am 7.9 1.7 7.8 99 0.1 ENE 30 37 16 20 - - 0.0
27/03:30am 7.8 1.0 7.7 99 0.1 E 33 43 18 23 - - 0.0
27/03:00am 7.9 1.3 7.8 99 0.1 E 32 43 17 23 - - 0.0
27/02:30am 7.7 1.1 7.6 99 0.1 E 32 41 17 22 - - 0.0
27/02:00am 7.9 1.3 7.8 99 0.1 E 32 44 17 24 - - 0.0
27/01:30am 7.9 1.1 7.8 99 0.1 E 33 43 18 23 - - 0.0
27/01:00am 8.0 1.2 7.9 99 0.1 ENE 33 43 18 23 - - 0.0
27/12:30am 7.9 0.7 7.8 99 0.1 E 35 44 19 24 - - 0.0
27/12:00am 7.8 0.6 7.7 99 0.1 E 35 43 19 23 - - 0.0
 
Date/Time
EDT
Temp
°C
App
Temp
°C
Dew
Point
Rel
Hum
%
Delta-T
°C
Wind Press
QNH
hPa
Press
MSL
hPa
Rain
since 9 am
mm
Dir
 
Spd
km/h
Gust
km/h
Spd
kts
Gust
kts
26/11:30pm 7.7 0.9 7.6 99 0.1 E 33 43 18 23 - - 0.0
26/11:00pm 7.7 1.1 7.6 99 0.1 E 32 43 17 23 - - 0.0
26/10:30pm 7.8 1.2 7.7 99 0.1 E 32 41 17 22 - - 0.0
26/10:00pm 8.0 1.2 7.9 99 0.1 E 33 43 18 23 - - 0.0
26/09:30pm 7.8 -0.1 7.7 99 0.1 E 39 50 21 27 - - 0.0

Other Formats:

Comma delimited format used in spreadsheet applications
http://www.bom.gov.au/fwo/IDN60801/IDN60801.95916.axf

JavaScript Object Notation format (JSON) in row-major order
http://www.bom.gov.au/fwo/IDN60801/IDN60801.95916.json